createdAt,value
2019-02-07T00:02:18.043Z,20.87
2019-02-07T00:04:48.558Z,21.57
2019-02-07T00:07:19.160Z,22.00
2019-02-07T00:09:49.709Z,22.87
2019-02-07T00:12:19.955Z,23.63
2019-02-07T00:14:50.269Z,21.50
2019-02-07T00:17:20.679Z,24.10
2019-02-07T00:19:51.831Z,21.53
2019-02-07T00:22:22.273Z,21.83
2019-02-07T00:24:52.513Z,21.47
2019-02-07T00:27:23.164Z,21.00
2019-02-07T00:29:53.745Z,25.00
2019-02-07T00:32:23.945Z,22.93
2019-02-07T00:34:54.149Z,21.90
2019-02-07T00:37:24.630Z,21.87
2019-02-07T00:39:54.836Z,23.70
2019-02-07T00:42:25.409Z,21.00
2019-02-07T00:44:55.640Z,21.20
2019-02-07T00:47:26.171Z,21.00
2019-02-07T00:49:56.608Z,20.83
2019-02-07T00:52:26.861Z,21.00
2019-02-07T00:54:57.391Z,22.40
2019-02-07T00:57:27.603Z,21.40
2019-02-07T01:00:01.030Z,21.47
2019-02-07T01:02:31.648Z,21.77
2019-02-07T01:05:01.849Z,20.73
2019-02-07T01:07:32.042Z,21.37
2019-02-07T01:10:02.686Z,22.07
2019-02-07T01:12:32.920Z,22.00
2019-02-07T01:15:03.185Z,24.00
2019-02-07T01:17:33.463Z,23.63
2019-02-07T01:20:05.779Z,23.03
2019-02-07T01:22:36.025Z,22.03
2019-02-07T01:25:07.966Z,20.53
2019-02-07T01:27:38.200Z,22.17
2019-02-07T01:30:10.419Z,21.67
2019-02-07T01:32:40.729Z,20.17
2019-02-07T01:35:10.969Z,20.40
2019-02-07T01:37:41.195Z,20.53
2019-02-07T01:40:14.064Z,18.33
2019-02-07T01:42:44.320Z,18.10
2019-02-07T01:45:16.977Z,19.17
2019-02-07T01:47:47.217Z,18.13
2019-02-07T01:50:19.367Z,18.73
2019-02-07T01:52:49.887Z,20.47
2019-02-07T01:55:20.503Z,17.00
2019-02-07T01:57:50.751Z,19.23
2019-02-07T02:00:21.728Z,16.47
2019-02-07T02:02:52.007Z,17.33
2019-02-07T02:05:22.628Z,16.23
2019-02-07T02:07:52.863Z,16.27
2019-02-07T02:10:24.992Z,15.63
2019-02-07T02:12:55.275Z,15.47
2019-02-07T02:15:25.525Z,15.30
2019-02-07T02:17:56.087Z,13.53
2019-02-07T02:20:27.013Z,13.60
2019-02-07T02:22:57.396Z,13.73
2019-02-07T02:25:27.717Z,13.03
2019-02-07T02:27:58.202Z,13.63
2019-02-07T02:30:33.458Z,11.43
2019-02-07T02:33:04.649Z,11.87
2019-02-07T02:35:35.254Z,11.50
2019-02-07T02:38:05.768Z,11.07
2019-02-07T02:40:36.031Z,11.30
2019-02-07T02:43:06.296Z,10.00
2019-02-07T02:45:37.877Z,10.20
2019-02-07T02:48:08.324Z,10.67
2019-02-07T02:50:38.945Z,9.73
2019-02-07T02:53:09.168Z,9.17
2019-02-07T02:55:42.010Z,10.07
2019-02-07T02:58:12.228Z,9.60
2019-02-07T03:01:00.408Z,8.47
2019-02-07T03:03:47.779Z,8.37
2019-02-07T03:06:42.716Z,7.97
2019-02-07T03:09:50.334Z,9.20
2019-02-07T03:12:42.282Z,10.20
2019-02-07T03:15:29.930Z,10.97
2019-02-07T03:18:28.252Z,7.33
2019-02-07T03:21:20.266Z,7.00
2019-02-07T03:24:08.210Z,6.20
2019-02-07T03:27:09.429Z,6.10
2019-02-07T03:30:01.768Z,5.93
2019-02-07T03:32:50.931Z,5.90
2019-02-07T03:35:58.530Z,6.33
2019-02-07T03:38:46.335Z,5.13
2019-02-07T03:41:31.127Z,5.50
2019-02-07T03:44:13.640Z,5.77
2019-02-07T03:47:02.966Z,5.07
2019-02-07T03:49:41.927Z,5.77
2019-02-07T03:52:37.159Z,5.57
2019-02-07T03:55:20.978Z,5.60
2019-02-07T03:58:25.250Z,5.60
2019-02-07T04:01:13.201Z,5.40
2019-02-07T04:03:52.321Z,5.37
2019-02-07T04:06:36.820Z,5.23
2019-02-07T04:09:26.854Z,6.97
2019-02-07T04:12:21.207Z,4.73
2019-02-07T04:15:15.811Z,5.20
2019-02-07T04:18:02.772Z,5.13
2019-02-07T04:20:50.587Z,6.20
2019-02-07T04:23:51.813Z,4.37
2019-02-07T04:26:49.921Z,4.30
2019-02-07T04:29:26.550Z,4.93
2019-02-07T04:32:22.221Z,5.67
2019-02-07T04:35:29.512Z,11.13
2019-02-07T04:38:14.375Z,13.13
2019-02-07T04:41:01.311Z,19.33
2019-02-07T04:43:50.509Z,18.30
2019-02-07T04:46:35.921Z,18.57
2019-02-07T04:49:24.009Z,22.83
2019-02-07T04:52:13.481Z,20.13
2019-02-07T04:55:01.517Z,22.73
2019-02-07T04:57:53.709Z,17.97
2019-02-07T05:00:34.548Z,24.33
2019-02-07T05:03:42.121Z,23.53
2019-02-07T05:06:43.578Z,23.60
2019-02-07T05:09:32.049Z,24.60
2019-02-07T05:12:21.172Z,22.07
2019-02-07T05:15:13.052Z,23.60
2019-02-07T05:18:02.491Z,24.10
2019-02-07T05:20:49.494Z,26.93
2019-02-07T05:23:41.638Z,30.20
2019-02-07T05:26:45.988Z,30.57
2019-02-07T05:29:34.257Z,32.73
2019-02-07T05:32:11.002Z,32.93
2019-02-07T05:34:56.188Z,30.30
2019-02-07T05:37:57.176Z,32.77
2019-02-07T05:40:38.545Z,30.47
2019-02-07T05:43:33.922Z,27.73
2019-02-07T05:46:38.321Z,27.87
2019-02-07T05:49:33.241Z,19.07
2019-02-07T05:52:34.760Z,32.03
2019-02-07T05:55:33.999Z,23.03
2019-02-07T05:58:16.553Z,25.27
2019-02-07T06:01:05.696Z,25.67
2019-02-07T06:03:42.778Z,21.53
2019-02-07T06:06:20.738Z,25.03
2019-02-07T06:09:09.963Z,21.80
2019-02-07T06:11:58.002Z,22.43
2019-02-07T06:14:42.533Z,20.70
2019-02-07T06:17:34.528Z,23.33
2019-02-07T06:20:23.444Z,21.13
2019-02-07T06:23:18.924Z,19.53
2019-02-07T06:25:58.751Z,20.13
2019-02-07T06:28:46.781Z,20.13
2019-02-07T06:31:34.646Z,22.90
2019-02-07T06:34:29.011Z,21.30
2019-02-07T06:37:19.723Z,19.13
2019-02-07T06:40:09.212Z,23.50
2019-02-07T06:42:58.887Z,23.43
2019-02-07T06:45:54.063Z,21.37
2019-02-07T06:48:49.365Z,19.30
2019-02-07T06:51:36.824Z,18.77
2019-02-07T06:54:17.260Z,20.20
2019-02-07T06:57:24.907Z,21.17
2019-02-07T07:00:22.851Z,21.23
2019-02-07T07:03:20.811Z,20.90
2019-02-07T07:06:08.899Z,19.37
2019-02-07T07:09:09.593Z,18.97
2019-02-07T07:11:57.608Z,24.80
2019-02-07T07:14:50.181Z,27.40
2019-02-07T07:17:45.204Z,25.17
2019-02-07T07:20:33.166Z,19.13
2019-02-07T07:23:16.673Z,18.33
2019-02-07T07:26:06.094Z,19.73
2019-02-07T07:28:54.131Z,22.40
2019-02-07T07:31:43.812Z,16.67
2019-02-07T07:34:27.014Z,23.53
2019-02-07T07:37:16.819Z,20.70
2019-02-07T07:39:56.939Z,19.37
2019-02-07T07:42:49.306Z,20.33
2019-02-07T07:45:39.177Z,19.20
2019-02-07T07:48:28.379Z,18.73
2019-02-07T07:51:36.056Z,18.37
2019-02-07T07:54:25.246Z,23.93
2019-02-07T07:57:20.712Z,17.40
2019-02-07T08:00:08.510Z,16.53
2019-02-07T08:02:54.740Z,18.97
2019-02-07T08:05:42.694Z,15.67
2019-02-07T08:08:31.330Z,16.70
2019-02-07T08:11:15.196Z,17.17
2019-02-07T08:14:03.117Z,18.60
2019-02-07T08:16:51.305Z,18.43
2019-02-07T08:19:39.133Z,16.27
2019-02-07T08:22:34.240Z,17.00
2019-02-07T08:25:20.536Z,15.47
2019-02-07T08:28:16.117Z,12.17
2019-02-07T08:31:04.086Z,13.73
2019-02-07T08:33:56.081Z,14.77
2019-02-07T08:36:44.692Z,15.33
2019-02-07T08:39:33.296Z,18.70
2019-02-07T08:42:41.151Z,17.10
2019-02-07T08:45:48.963Z,16.10
2019-02-07T08:48:53.618Z,15.53
2019-02-07T08:51:42.897Z,14.03
2019-02-07T08:54:44.493Z,16.03
2019-02-07T08:57:37.951Z,20.23
2019-02-07T09:00:39.767Z,15.90
2019-02-07T09:03:38.237Z,19.23
2019-02-07T09:06:17.839Z,15.77
2019-02-07T09:09:05.919Z,19.63
2019-02-07T09:11:53.767Z,18.90
2019-02-07T09:14:43.097Z,19.77
2019-02-07T09:17:20.337Z,17.53
2019-02-07T09:20:17.337Z,20.03
2019-02-07T09:23:01.952Z,17.00
2019-02-07T09:25:54.181Z,21.00
2019-02-07T09:28:42.493Z,20.13
2019-02-07T09:31:28.766Z,19.40
2019-02-07T09:34:17.920Z,16.47
2019-02-07T09:37:06.229Z,17.23
2019-02-07T09:39:54.245Z,12.83
2019-02-07T09:42:46.464Z,16.73
2019-02-07T09:45:41.666Z,15.50
2019-02-07T09:48:29.434Z,13.90
2019-02-07T09:51:34.228Z,15.77
2019-02-07T09:54:21.203Z,12.47
2019-02-07T09:57:15.483Z,15.67
2019-02-07T10:00:04.912Z,15.53
2019-02-07T10:02:57.056Z,12.10
2019-02-07T10:05:52.421Z,14.53
2019-02-07T10:08:40.240Z,17.97
2019-02-07T10:11:22.308Z,19.10
2019-02-07T10:14:11.497Z,16.67
2019-02-07T10:17:10.401Z,17.93
2019-02-07T10:19:58.174Z,18.47
2019-02-07T10:22:47.480Z,17.27
2019-02-07T10:25:37.350Z,17.10
2019-02-07T10:28:25.546Z,17.63
2019-02-07T10:31:09.171Z,15.07
2019-02-07T10:33:58.717Z,19.93
2019-02-07T10:37:00.404Z,18.70
2019-02-07T10:39:49.623Z,15.47
2019-02-07T10:42:57.242Z,16.17
2019-02-07T10:45:45.601Z,14.80
2019-02-07T10:48:44.452Z,18.90
2019-02-07T10:51:29.973Z,18.73
2019-02-07T10:54:18.181Z,22.03
2019-02-07T10:57:08.644Z,19.87
2019-02-07T10:59:56.607Z,18.37
2019-02-07T11:02:54.531Z,16.00
2019-02-07T11:05:46.798Z,13.10
2019-02-07T11:08:44.770Z,14.80
2019-02-07T11:11:21.485Z,13.77
2019-02-07T11:14:20.306Z,12.83
2019-02-07T11:17:09.581Z,12.10
2019-02-07T11:20:10.957Z,14.47
2019-02-07T11:22:53.233Z,11.07
2019-02-07T11:25:42.451Z,10.93
2019-02-07T11:28:30.439Z,10.53
2019-02-07T11:31:07.909Z,8.60
2019-02-07T11:33:47.148Z,9.57
2019-02-07T11:36:53.775Z,9.77
2019-02-07T11:39:34.860Z,9.10
2019-02-07T11:42:30.092Z,9.00
2019-02-07T11:45:13.428Z,13.63
2019-02-07T11:48:05.496Z,11.47
2019-02-07T11:50:53.444Z,10.20
2019-02-07T11:53:41.353Z,8.77
2019-02-07T11:56:36.643Z,12.43
2019-02-07T11:59:24.753Z,12.00
2019-02-07T12:02:17.175Z,14.87
2019-02-07T12:04:58.568Z,12.67
2019-02-07T12:07:51.150Z,16.07
2019-02-07T12:10:37.536Z,14.10
2019-02-07T12:13:25.692Z,11.07
2019-02-07T12:16:30.220Z,11.93
2019-02-07T12:19:20.345Z,7.73
2019-02-07T12:22:15.600Z,10.80
2019-02-07T12:25:11.118Z,12.27
2019-02-07T12:28:09.679Z,8.87
2019-02-07T12:30:58.731Z,10.97
2019-02-07T12:33:40.168Z,7.07
2019-02-07T12:36:44.447Z,7.93
2019-02-07T12:39:32.817Z,8.37
2019-02-07T12:42:20.618Z,7.60
2019-02-07T12:45:14.346Z,6.47
2019-02-07T12:48:06.774Z,7.13
2019-02-07T12:51:01.947Z,9.07
2019-02-07T12:53:52.120Z,8.07
2019-02-07T12:56:40.058Z,11.07
2019-02-07T12:59:27.967Z,7.30
2019-02-07T13:02:16.703Z,11.10
2019-02-07T13:05:18.199Z,8.60
2019-02-07T13:08:16.297Z,7.17
2019-02-07T13:11:18.249Z,8.67
2019-02-07T13:14:07.482Z,7.10
2019-02-07T13:17:05.818Z,11.87
2019-02-07T13:19:55.350Z,7.53
2019-02-07T13:22:47.982Z,9.77
2019-02-07T13:25:44.653Z,8.20
2019-02-07T13:28:32.705Z,7.60
2019-02-07T13:31:24.160Z,10.23
2019-02-07T13:34:11.972Z,12.17
2019-02-07T13:37:02.001Z,11.57
2019-02-07T13:39:50.005Z,8.97
2019-02-07T13:42:37.983Z,13.47
2019-02-07T13:45:28.088Z,10.63
2019-02-07T13:48:20.447Z,13.17
2019-02-07T13:51:27.986Z,11.40
2019-02-07T13:54:19.968Z,9.87
2019-02-07T13:57:12.536Z,9.90
2019-02-07T13:59:55.729Z,9.73
2019-02-07T14:02:57.603Z,7.80
2019-02-07T14:05:53.045Z,6.93
2019-02-07T14:08:48.423Z,8.70
2019-02-07T14:11:49.705Z,14.77
2019-02-07T14:14:38.143Z,8.83
2019-02-07T14:17:27.344Z,10.03
2019-02-07T14:20:16.490Z,9.17
2019-02-07T14:23:04.084Z,9.37
2019-02-07T14:25:57.305Z,8.73
2019-02-07T14:28:45.538Z,14.23
2019-02-07T14:31:35.462Z,11.17
2019-02-07T14:34:23.572Z,12.20
2019-02-07T14:37:19.110Z,10.40
2019-02-07T14:40:11.388Z,10.53
2019-02-07T14:43:06.420Z,6.77
2019-02-07T14:45:58.427Z,8.57
2019-02-07T14:48:29.011Z,13.37
2019-02-07T14:50:59.234Z,8.80
2019-02-07T14:53:29.496Z,10.30
2019-02-07T14:56:00.132Z,8.50
2019-02-07T14:58:30.374Z,12.83
2019-02-07T15:01:00.743Z,10.63
2019-02-07T15:03:31.699Z,8.67
2019-02-07T15:06:02.005Z,9.43
2019-02-07T15:08:32.158Z,12.63
2019-02-07T15:11:02.810Z,10.00
2019-02-07T15:13:33.012Z,9.30
2019-02-07T15:16:04.337Z,8.47
2019-02-07T15:18:34.814Z,8.40
2019-02-07T15:21:06.012Z,8.27
2019-02-07T15:23:36.854Z,8.77
2019-02-07T15:26:08.805Z,9.17
2019-02-07T15:28:39.043Z,12.77
2019-02-07T15:31:09.237Z,12.40
2019-02-07T15:33:39.499Z,10.47
2019-02-07T15:36:11.156Z,10.97
2019-02-07T15:38:41.817Z,7.87
2019-02-07T15:41:12.147Z,11.47
2019-02-07T15:43:42.804Z,7.63
2019-02-07T15:46:13.038Z,9.97
2019-02-07T15:48:43.299Z,8.17
2019-02-07T15:51:13.944Z,11.03
2019-02-07T15:53:44.790Z,10.00
2019-02-07T15:56:15.023Z,9.60
2019-02-07T15:59:03.580Z,11.80
2019-02-07T16:01:38.640Z,10.43
2019-02-07T16:04:12.954Z,9.07
2019-02-07T16:06:43.842Z,9.13
2019-02-07T16:09:15.126Z,8.50
2019-02-07T16:11:45.437Z,8.60
2019-02-07T16:14:15.730Z,10.57
2019-02-07T16:16:45.982Z,8.50
2019-02-07T16:19:16.557Z,9.27
2019-02-07T16:21:46.802Z,11.73
2019-02-07T16:24:17.873Z,7.93
2019-02-07T16:26:48.150Z,13.67
2019-02-07T16:29:18.797Z,12.00
2019-02-07T16:31:49.478Z,11.50
2019-02-07T16:34:19.739Z,10.03
2019-02-07T16:36:50.418Z,10.60
2019-02-07T16:39:21.440Z,12.83
2019-02-07T16:41:51.679Z,13.03
2019-02-07T16:44:22.078Z,12.00
2019-02-07T16:46:54.525Z,10.00
2019-02-07T16:49:24.821Z,10.23
2019-02-07T16:51:55.510Z,10.53
2019-02-07T16:54:25.777Z,14.00
2019-02-07T16:56:56.088Z,12.03
2019-02-07T16:59:26.675Z,11.57
2019-02-07T17:01:56.907Z,8.70
2019-02-07T17:04:27.367Z,10.83
2019-02-07T17:06:57.876Z,9.63
2019-02-07T17:09:31.920Z,9.93
2019-02-07T17:12:02.243Z,11.83
2019-02-07T17:14:32.566Z,14.80
2019-02-07T17:17:05.486Z,10.47
2019-02-07T17:19:35.541Z,9.63
2019-02-07T17:22:05.709Z,16.60
2019-02-07T17:24:35.947Z,12.73
2019-02-07T17:27:06.614Z,12.23
2019-02-07T17:29:37.121Z,12.13
2019-02-07T17:32:07.353Z,11.27
2019-02-07T17:34:37.630Z,11.70
2019-02-07T17:37:08.155Z,11.43
2019-02-07T17:39:38.765Z,9.60
2019-02-07T17:42:21.545Z,10.80
2019-02-07T17:44:51.753Z,12.20
2019-02-07T17:47:21.958Z,11.80
2019-02-07T17:49:52.167Z,11.93
2019-02-07T17:52:22.776Z,11.83
2019-02-07T17:54:53.000Z,13.17
2019-02-07T17:57:23.295Z,14.43
2019-02-07T17:59:53.698Z,11.13
2019-02-07T18:02:23.964Z,13.43
2019-02-07T18:04:54.147Z,7.83
2019-02-07T18:07:24.674Z,10.57
2019-02-07T18:09:54.953Z,13.63
2019-02-07T18:12:25.169Z,16.43
2019-02-07T18:14:55.375Z,11.23
2019-02-07T18:17:26.299Z,15.40
2019-02-07T18:19:56.512Z,16.73
2019-02-07T18:22:27.354Z,12.47
2019-02-07T18:24:57.953Z,14.00
2019-02-07T18:27:28.696Z,11.53
2019-02-07T18:29:58.876Z,17.50
2019-02-07T18:32:29.483Z,13.73
2019-02-07T18:35:00.352Z,13.27
2019-02-07T18:37:30.852Z,8.83
2019-02-07T18:40:01.754Z,13.33
2019-02-07T18:42:32.058Z,12.77
2019-02-07T18:45:02.613Z,12.50
2019-02-07T18:47:32.848Z,13.47
2019-02-07T18:50:03.174Z,14.73
2019-02-07T18:52:33.404Z,13.27
2019-02-07T18:55:04.050Z,14.57
2019-02-07T18:57:34.311Z,15.03
2019-02-07T19:00:06.900Z,15.43
2019-02-07T19:02:37.340Z,15.17
2019-02-07T19:05:09.486Z,18.60
2019-02-07T19:07:39.700Z,21.50
2019-02-07T19:10:10.966Z,14.10
2019-02-07T19:12:41.166Z,12.50
2019-02-07T19:15:14.951Z,16.43
2019-02-07T19:17:45.208Z,11.53
2019-02-07T19:20:17.721Z,16.63
2019-02-07T19:22:48.431Z,15.37
2019-02-07T19:25:19.164Z,18.50
2019-02-07T19:27:49.689Z,15.97
2019-02-07T19:30:28.524Z,12.90
2019-02-07T19:32:59.206Z,13.57
2019-02-07T19:35:29.488Z,17.77
2019-02-07T19:37:59.810Z,15.33
2019-02-07T19:40:30.026Z,15.03
2019-02-07T19:43:01.366Z,16.23
2019-02-07T19:45:31.604Z,13.90
2019-02-07T19:48:01.835Z,16.10
2019-02-07T19:50:32.085Z,11.45
2019-02-07T19:53:02.899Z,10.57
2019-02-07T19:55:33.577Z,15.43
2019-02-07T19:58:03.990Z,12.30
2019-02-07T20:00:34.633Z,14.53
2019-02-07T20:03:05.627Z,14.33
2019-02-07T20:05:36.137Z,13.87
2019-02-07T20:08:06.444Z,14.30
2019-02-07T20:10:36.914Z,12.20
2019-02-07T20:13:07.467Z,17.93
2019-02-07T20:15:39.793Z,13.00
2019-02-07T20:18:10.773Z,15.70
2019-02-07T20:20:41.807Z,14.77
2019-02-07T20:23:12.618Z,16.47
2019-02-07T20:25:43.224Z,14.40
2019-02-07T20:28:13.431Z,17.27
2019-02-07T20:30:44.076Z,13.53
2019-02-07T20:33:14.317Z,17.50
2019-02-07T20:35:44.634Z,12.77
2019-02-07T20:38:14.856Z,13.27
2019-02-07T20:40:45.501Z,14.70
2019-02-07T20:43:15.876Z,15.23
2019-02-07T20:45:46.634Z,15.00
2019-02-07T20:48:17.429Z,14.23
2019-02-07T20:50:47.748Z,15.27
2019-02-07T20:53:18.187Z,19.10
2019-02-07T20:55:49.042Z,16.07
2019-02-07T20:58:19.314Z,13.90
2019-02-07T21:00:49.580Z,18.63
2019-02-07T21:03:20.491Z,14.57
2019-02-07T21:05:51.021Z,12.37
2019-02-07T21:08:21.528Z,14.97
2019-02-07T21:10:52.605Z,12.23
2019-02-07T21:13:23.132Z,14.57
2019-02-07T21:15:53.641Z,15.27
2019-02-07T21:18:24.406Z,12.17
2019-02-07T21:20:54.627Z,13.03
2019-02-07T21:23:24.821Z,12.87
2019-02-07T21:25:55.193Z,14.60
2019-02-07T21:28:25.705Z,12.50
2019-02-07T21:30:55.921Z,9.37
2019-02-07T21:33:26.129Z,13.33
2019-02-07T21:35:56.334Z,13.87
2019-02-07T21:38:27.449Z,15.10
2019-02-07T21:40:58.421Z,11.23
2019-02-07T21:43:29.001Z,10.43
2019-02-07T21:45:59.246Z,12.10
2019-02-07T21:48:29.582Z,12.67
2019-02-07T21:51:00.065Z,14.53
2019-02-07T21:53:30.596Z,10.70
2019-02-07T21:56:01.471Z,13.90
2019-02-07T21:58:31.673Z,16.23
2019-02-07T22:01:01.927Z,12.80
2019-02-07T22:03:32.107Z,11.73
2019-02-07T22:06:02.336Z,9.20
2019-02-07T22:08:32.588Z,9.97
2019-02-07T22:11:03.229Z,9.67
2019-02-07T22:13:33.523Z,11.97
2019-02-07T22:16:03.704Z,11.23
2019-02-07T22:18:33.998Z,11.20
2019-02-07T22:21:04.228Z,12.83
2019-02-07T22:26:19.317Z,9.53
2019-02-07T22:28:49.566Z,11.43
2019-02-07T22:31:19.808Z,9.63
2019-02-07T22:33:50.033Z,10.10
2019-02-07T22:36:20.337Z,10.50
2019-02-07T22:38:50.563Z,9.67
2019-02-07T22:41:20.777Z,8.73
2019-02-07T22:43:50.978Z,12.03
2019-02-07T22:46:21.197Z,13.73
2019-02-07T22:48:52.043Z,10.63
2019-02-07T22:51:22.257Z,11.40
2019-02-07T22:53:52.436Z,11.43
2019-02-07T22:56:22.974Z,9.70
2019-02-07T22:58:53.177Z,8.67
2019-02-07T23:02:01.376Z,9.50
2019-02-07T23:04:31.950Z,9.70
2019-02-07T23:07:02.918Z,8.77
2019-02-07T23:09:33.120Z,11.47
2019-02-07T23:12:03.311Z,8.73
2019-02-07T23:14:33.462Z,11.27
2019-02-07T23:17:03.673Z,10.83
2019-02-07T23:19:33.936Z,11.33
2019-02-07T23:22:04.722Z,10.93
2019-02-07T23:24:35.833Z,11.67
2019-02-07T23:27:06.292Z,8.47
2019-02-07T23:29:36.433Z,11.60
2019-02-07T23:32:06.878Z,9.77
2019-02-07T23:34:37.077Z,9.83
2019-02-07T23:37:07.384Z,5.57
2019-02-07T23:39:37.608Z,7.73
2019-02-07T23:42:07.800Z,11.27
2019-02-07T23:44:38.083Z,10.57
2019-02-07T23:47:08.263Z,7.40
2019-02-07T23:49:38.469Z,9.30
2019-02-07T23:52:09.155Z,5.83
2019-02-07T23:54:39.387Z,9.23
2019-02-07T23:57:09.599Z,8.87
2019-02-07T23:59:39.855Z,8.77
